Time;durP1;ratioP1;P1;durP2;ratioP2;P2;SDS_P1;SDS_P2;PMS_P1;PMS_P2;Temp;Humidity;BMP_temperature;BMP_pressure;BME280_temperature;BME280_humidity;BME280_pressure;Samples;Min_cycle;Max_cycle;Signal;HPM_P1;HPM_P2
2021/03/27 00:01:59;;;;;;;68.37;37.20;;;;;;;8.30;51.38;100515.34;147769;1147;104553;-80
2021/03/27 00:05:14;;;;;;;69.87;39.67;;;;;;;8.26;51.50;100512.11;147662;1147;104516;-83
2021/03/27 00:08:23;;;;;;;68.72;36.85;;;;;;;8.22;51.75;100512.52;147225;1147;104487;-80
2021/03/27 00:11:36;;;;;;;66.85;38.50;;;;;;;8.19;51.76;100502.13;147541;1147;104458;-81
2021/03/27 00:14:49;;;;;;;65.37;36.37;;;;;;;8.16;52.22;100500.59;147318;1147;104613;-77
2021/03/27 00:17:56;;;;;;;66.37;37.30;;;;;;;8.14;51.86;100499.02;147522;1148;104751;-77
2021/03/27 00:21:04;;;;;;;68.33;38.40;;;;;;;8.10;52.55;100494.94;147786;1147;104568;-77
2021/03/27 00:24:14;;;;;;;70.28;40.83;;;;;;;8.04;52.18;100498.96;147682;1147;104553;-76
2021/03/27 00:27:22;;;;;;;81.12;47.58;;;;;;;7.99;52.12;100493.22;147241;1148;104549;-76
2021/03/27 00:30:32;;;;;;;83.42;47.25;;;;;;;7.91;52.24;100485.03;147752;1147;104615;-77
2021/03/27 00:33:38;;;;;;;78.80;42.73;;;;;;;7.83;52.95;100486.55;147509;1147;104476;-81
2021/03/27 00:36:45;;;;;;;75.78;43.60;;;;;;;7.78;52.59;100480.77;147730;1147;104556;-80
2021/03/27 00:39:52;;;;;;;76.72;43.70;;;;;;;7.73;52.44;100482.95;147819;1147;104455;-80
2021/03/27 00:43:02;;;;;;;76.97;44.15;;;;;;;7.66;53.16;100472.02;147830;1147;104463;-81
2021/03/27 00:46:09;;;;;;;72.58;39.92;;;;;;;7.62;53.11;100480.36;147423;1146;104610;-83
2021/03/27 00:49:15;;;;;;;98.00;54.98;;;;;;;7.57;52.82;100472.78;147894;1147;104513;-83
2021/03/27 00:52:20;;;;;;;90.70;48.52;;;;;;;7.55;52.37;100463.28;147435;1148;104559;-82
2021/03/27 00:55:29;;;;;;;79.00;41.33;;;;;;;7.53;53.00;100467.87;147888;1147;104513;-83
2021/03/27 00:58:43;;;;;;;78.80;43.78;;;;;;;7.50;53.47;100466.30;147485;1147;104542;-80
2021/03/27 01:01:52;;;;;;;73.53;39.30;;;;;;;7.48;53.64;100462.93;147841;1147;104627;-80
2021/03/27 01:05:17;;;;;;;75.42;42.40;;;;;;;7.47;53.45;100467.41;147909;1147;104524;-80
2021/03/27 01:09:00;;;;;;;69.50;38.02;;;;;;;7.45;52.79;100466.69;147763;1147;104446;-78
2021/03/27 01:12:38;;;;;;;73.90;39.73;;;;;;;7.39;52.72;100463.69;147165;1147;104645;-77
2021/03/27 01:15:47;;;;;;;69.47;38.43;;;;;;;7.35;52.67;100456.95;147755;1147;104486;-77
2021/03/27 01:18:57;;;;;;;67.60;39.50;;;;;;;7.32;54.20;100455.41;147814;1147;104626;-79
2021/03/27 01:22:04;;;;;;;68.72;37.17;;;;;;;7.28;53.78;100453.98;147824;1147;104553;-77
2021/03/27 01:25:10;;;;;;;67.80;37.37;;;;;;;7.22;54.20;100446.53;147751;1145;104476;-81
2021/03/27 01:28:26;;;;;;;65.47;35.15;;;;;;;7.16;53.14;100453.19;147769;1147;104503;-78
2021/03/27 01:31:39;;;;;;;61.95;34.67;;;;;;;7.12;53.54;100450.89;147843;1147;104553;-79
2021/03/27 01:34:47;;;;;;;65.35;34.10;;;;;;;7.10;54.12;100444.87;147477;1147;104548;-78
2021/03/27 01:37:54;;;;;;;63.63;35.50;;;;;;;7.06;54.04;100439.83;147604;1147;104547;-75
2021/03/27 01:41:10;;;;;;;66.17;34.27;;;;;;;7.04;53.97;100427.64;147491;1147;104503;-76
2021/03/27 01:44:27;;;;;;;63.98;33.83;;;;;;;7.03;54.21;100434.77;147759;1148;104553;-76
2021/03/27 01:47:35;;;;;;;68.65;34.65;;;;;;;6.98;54.50;100423.67;147616;1147;104450;-76
2021/03/27 01:50:45;;;;;;;64.27;34.15;;;;;;;6.98;54.44;100431.64;147564;1145;104662;-76
2021/03/27 01:53:54;;;;;;;67.62;35.92;;;;;;;6.97;53.61;100424.66;147733;1146;104858;-78
2021/03/27 01:57:11;;;;;;;65.55;34.03;;;;;;;6.94;54.48;100418.77;147778;1147;104546;-75
2021/03/27 02:00:20;;;;;;;61.85;32.03;;;;;;;6.92;54.49;100424.19;147736;1147;104449;-78
2021/03/27 02:03:28;;;;;;;65.22;34.10;;;;;;;6.92;54.77;100420.70;147796;1147;104571;-75
2021/03/27 02:06:38;;;;;;;64.45;33.73;;;;;;;6.91;54.01;100416.34;147772;1147;104612;-76
2021/03/27 02:10:00;;;;;;;59.30;31.48;;;;;;;6.90;53.64;100420.81;147390;1148;104538;-75
2021/03/27 02:13:09;;;;;;;66.07;32.95;;;;;;;6.88;54.23;100406.84;147104;1147;104556;-74
2021/03/27 02:16:22;;;;;;;63.37;31.27;;;;;;;6.88;53.56;100398.88;147387;1147;104470;-80
2021/03/27 02:20:01;;;;;;;65.22;32.83;;;;;;;6.90;55.22;100390.80;147571;1147;104489;-80
2021/03/27 02:23:15;;;;;;;65.83;32.40;;;;;;;6.93;55.55;100394.05;147783;1147;104720;-79
2021/03/27 02:26:33;;;;;;;61.02;32.98;;;;;;;6.97;55.68;100386.69;147753;1147;104476;-79
2021/03/27 02:30:11;;;;;;;60.80;32.08;;;;;;;7.00;55.59;100378.45;147645;1147;104473;-79
2021/03/27 02:33:33;;;;;;;60.83;31.35;;;;;;;7.04;55.03;100385.19;147724;1147;104468;-77
2021/03/27 02:36:48;;;;;;;61.13;31.37;;;;;;;7.05;54.99;100392.19;147751;1147;104545;-80
2021/03/27 02:39:59;;;;;;;60.77;32.90;;;;;;;7.10;54.34;100392.63;147789;1147;104533;-79
2021/03/27 02:43:10;;;;;;;58.68;31.10;;;;;;;7.13;54.03;100394.21;147800;1147;104462;-78
2021/03/27 02:46:23;;;;;;;56.45;30.02;;;;;;;7.18;54.47;100384.03;147511;1147;104946;-78
2021/03/27 02:49:45;;;;;;;58.05;30.35;;;;;;;7.23;55.05;100368.58;147771;1147;104534;-79
2021/03/27 02:52:54;;;;;;;;;;;;;;;7.27;54.46;100380.62;147824;1147;105093;-79
2021/03/27 02:56:13;;;;;;;49.13;25.43;;;;;;;7.31;54.42;100376.73;147463;1147;104457;-79
2021/03/27 02:59:28;;;;;;;57.10;29.80;;;;;;;7.35;55.32;100379.97;147599;1147;104553;-79
2021/03/27 03:02:43;;;;;;;51.73;29.50;;;;;;;7.35;55.66;100378.19;147791;1147;104489;-78
2021/03/27 03:05:51;;;;;;;57.78;29.82;;;;;;;7.36;54.72;100374.55;147593;1147;104489;-76
2021/03/27 03:09:08;;;;;;;55.70;30.12;;;;;;;7.39;55.15;100384.91;147731;1147;104479;-75
2021/03/27 03:12:18;;;;;;;57.45;30.82;;;;;;;7.43;55.01;100383.67;147257;1147;104550;-77
2021/03/27 03:15:28;;;;;;;57.63;30.47;;;;;;;7.46;54.39;100379.91;147590;1147;104548;-75
2021/03/27 03:18:41;;;;;;;56.08;30.48;;;;;;;7.51;55.23;100376.89;147358;1147;104501;-74
2021/03/27 03:21:47;;;;;;;54.53;30.63;;;;;;;7.55;55.68;100365.03;147610;1147;104547;-74
2021/03/27 03:24:57;;;;;;;58.78;31.80;;;;;;;7.59;54.96;100374.41;147765;1147;105004;-77
2021/03/27 03:28:23;;;;;;;56.42;30.55;;;;;;;7.63;55.02;100363.38;147621;1146;104948;-75
2021/03/27 03:31:40;;;;;;;53.98;29.80;;;;;;;7.69;55.51;100363.84;147620;1146;104582;-75
2021/03/27 03:34:58;;;;;;;53.17;29.35;;;;;;;7.73;54.65;100360.78;147393;1147;104556;-75
2021/03/27 03:38:17;;;;;;;57.63;31.13;;;;;;;7.78;55.34;100360.40;147370;1147;104546;-77
2021/03/27 03:41:43;;;;;;;57.60;30.50;;;;;;;7.82;54.23;100359.98;147409;1147;104550;-75
2021/03/27 03:44:56;;;;;;;53.40;29.52;;;;;;;7.85;54.22;100351.77;147630;1147;104516;-73
2021/03/27 03:48:08;;;;;;;57.83;29.75;;;;;;;7.89;54.86;100343.52;147514;1147;105086;-74
2021/03/27 03:51:22;;;;;;;54.38;29.60;;;;;;;7.89;56.03;100347.03;147622;1147;104549;-77
2021/03/27 03:54:37;;;;;;;55.23;30.60;;;;;;;7.89;55.71;100354.14;147776;1147;104556;-78
2021/03/27 03:57:59;;;;;;;54.17;30.23;;;;;;;7.89;55.43;100349.69;147713;1147;104551;-75
2021/03/27 04:01:08;;;;;;;51.07;28.87;;;;;;;7.91;55.20;100346.88;147796;1147;104844;-75
2021/03/27 04:04:18;;;;;;;53.73;29.70;;;;;;;7.93;55.21;100342.27;147781;1148;104553;-80
2021/03/27 04:07:29;;;;;;;51.60;29.60;;;;;;;7.91;55.60;100339.77;147704;1147;104594;-76
2021/03/27 04:10:34;;;;;;;55.17;30.80;;;;;;;7.93;54.67;100344.92;147671;1147;104551;-76
2021/03/27 04:13:42;;;;;;;62.43;30.43;;;;;;;7.94;54.59;100344.80;147497;1147;104454;-75
2021/03/27 04:16:46;;;;;;;56.33;30.82;;;;;;;7.92;55.02;100336.12;147328;1147;104579;-76
2021/03/27 04:19:56;;;;;;;57.50;31.33;;;;;;;7.89;55.26;100340.86;147796;1146;104942;-78
2021/03/27 04:23:08;;;;;;;54.10;30.10;;;;;;;7.85;54.96;100342.93;147490;1148;104550;-78
2021/03/27 04:26:37;;;;;;;54.98;30.82;;;;;;;7.81;55.92;100347.70;147599;1147;104700;-78
2021/03/27 04:29:43;;;;;;;55.60;30.62;;;;;;;7.76;55.50;100335.78;147593;1147;104953;-76
2021/03/27 04:32:54;;;;;;;57.57;30.93;;;;;;;7.73;55.58;100344.01;147803;1147;104627;-77
2021/03/27 04:36:02;;;;;;;56.30;30.10;;;;;;;7.70;55.71;100338.95;147598;1148;104479;-78
2021/03/27 04:39:13;;;;;;;56.83;31.37;;;;;;;7.69;55.34;100340.77;147745;1148;104937;-80
2021/03/27 04:42:22;;;;;;;55.17;30.85;;;;;;;7.69;55.48;100343.42;147467;1147;104864;-79
2021/03/27 04:45:29;;;;;;;54.95;30.25;;;;;;;7.71;56.35;100344.13;147770;1147;104585;-81
2021/03/27 04:48:39;;;;;;;57.17;31.15;;;;;;;7.74;55.93;100348.36;147534;1147;104551;-76
2021/03/27 04:51:50;;;;;;;58.60;30.45;;;;;;;7.78;56.39;100336.49;147807;1147;104542;-77
2021/03/27 04:55:00;;;;;;;55.05;30.55;;;;;;;7.81;56.64;100342.38;147671;1147;104529;-74
2021/03/27 04:58:19;;;;;;;55.65;30.43;;;;;;;7.84;55.76;100336.78;147302;1148;104892;-74
2021/03/27 05:01:41;;;;;;;54.58;30.02;;;;;;;7.89;56.22;100341.72;147716;1147;104469;-76
2021/03/27 05:04:57;;;;;;;56.98;31.37;;;;;;;7.92;55.53;100343.26;147578;1148;104634;-77
2021/03/27 05:08:09;;;;;;;56.25;30.37;;;;;;;7.94;56.02;100349.28;147701;1147;104898;-77
2021/03/27 05:11:24;;;;;;;53.40;29.33;;;;;;;8.00;55.86;100344.25;147660;1146;104476;-77
2021/03/27 05:14:48;;;;;;;51.70;29.60;;;;;;;8.04;56.43;100336.86;147791;1148;104458;-77
2021/03/27 05:18:04;;;;;;;55.17;30.40;;;;;;;8.07;55.93;100336.59;147640;1147;104466;-79
2021/03/27 05:21:17;;;;;;;53.63;30.17;;;;;;;8.11;56.76;100323.89;147455;1146;104665;-77
2021/03/27 05:24:29;;;;;;;55.03;31.70;;;;;;;8.13;56.23;100324.59;147444;1147;104546;-75
2021/03/27 05:27:44;;;;;;;53.95;29.52;;;;;;;8.14;56.07;100323.59;147374;1147;104548;-74
2021/03/27 05:30:55;;;;;;;54.75;31.68;;;;;;;8.16;56.37;100325.16;147854;1147;104469;-73
2021/03/27 05:34:09;;;;;;;53.15;30.27;;;;;;;8.17;56.75;100318.86;147756;1147;104590;-74
2021/03/27 05:37:34;;;;;;;58.13;32.63;;;;;;;8.20;56.97;100323.91;147803;1148;104556;-76
2021/03/27 05:40:59;;;;;;;52.48;30.20;;;;;;;8.22;56.85;100327.27;147770;1147;104589;-77
2021/03/27 05:44:42;;;;;;;58.60;31.97;;;;;;;8.23;55.91;100328.10;147607;1147;104857;-78
2021/03/27 05:48:18;;;;;;;54.95;31.42;;;;;;;8.23;56.78;100320.96;147479;1147;104492;-78
2021/03/27 05:52:05;;;;;;;54.20;30.10;;;;;;;8.24;55.85;100327.97;147641;1145;104454;-80
2021/03/27 05:56:01;;;;;;;50.55;29.55;;;;;;;8.27;56.96;100326.84;147713;1147;104925;-76
2021/03/27 05:59:25;;;;;;;54.40;30.68;;;;;;;8.26;56.96;100320.70;147227;1148;104656;-75
2021/03/27 06:02:53;;;;;;;53.10;30.15;;;;;;;8.30;56.30;100313.30;147757;1147;104899;-72
2021/03/27 06:06:33;;;;;;;51.75;29.90;;;;;;;8.36;56.44;100317.23;147777;1147;104494;-72
2021/03/27 06:09:51;;;;;;;51.50;29.60;;;;;;;8.39;56.73;100317.80;147797;1147;104506;-75
2021/03/27 06:13:22;;;;;;;52.10;30.70;;;;;;;8.43;56.28;100313.91;147752;1147;104646;-74
2021/03/27 06:17:03;;;;;;;52.27;30.62;;;;;;;8.49;56.61;100309.00;147773;1147;104541;-72
2021/03/27 06:20:47;;;;;;;54.45;31.23;;;;;;;8.53;56.07;100308.61;147576;1147;104564;-73
2021/03/27 06:24:20;;;;;;;51.23;28.57;;;;;;;8.53;55.62;100299.80;147515;1147;104516;-72
2021/03/27 06:27:54;;;;;;;48.90;28.10;;;;;;;8.48;56.60;100297.53;147558;1147;104485;-75
2021/03/27 06:31:12;;;;;;;49.53;28.83;;;;;;;8.51;56.79;100297.27;147472;1147;104529;-75
2021/03/27 06:34:48;;;;;;;51.70;29.32;;;;;;;8.59;56.92;100301.89;147367;1148;104448;-76
2021/03/27 06:38:15;;;;;;;51.97;29.33;;;;;;;8.71;56.74;100294.61;147771;1148;104918;-75
2021/03/27 06:42:01;;;;;;;51.10;30.20;;;;;;;8.82;56.24;100294.47;147407;1148;104467;-81
2021/03/27 06:45:52;;;;;;;52.13;30.17;;;;;;;8.90;56.30;100291.94;147782;1147;104475;-78
2021/03/27 06:49:41;;;;;;;48.50;28.98;;;;;;;9.00;56.50;100287.44;147778;1147;104610;-77
2021/03/27 06:53:13;;;;;;;52.48;30.17;;;;;;;9.13;55.60;100294.30;147597;1147;104556;-74
2021/03/27 06:56:39;;;;;;;49.55;28.75;;;;;;;9.22;55.89;100293.45;147572;1147;104491;-76
2021/03/27 07:00:24;;;;;;;52.05;30.20;;;;;;;9.32;56.13;100285.44;147495;1147;104584;-77
2021/03/27 07:03:55;;;;;;;52.97;29.03;;;;;;;9.42;55.98;100286.23;147677;1147;104467;-76
2021/03/27 07:07:23;;;;;;;50.50;29.35;;;;;;;9.53;56.10;100278.08;147723;1146;104540;-78
2021/03/27 07:11:13;;;;;;;50.17;29.30;;;;;;;9.62;55.63;100277.20;147774;1147;104522;-78
2021/03/27 07:14:51;;;;;;;48.50;29.02;;;;;;;9.77;55.96;100274.87;147666;1147;104631;-77
2021/03/27 07:18:13;;;;;;;52.23;30.55;;;;;;;9.95;55.50;100276.75;147764;1146;104556;-76
2021/03/27 07:21:47;;;;;;;49.10;29.60;;;;;;;10.08;55.58;100277.24;147639;1147;104477;-75
2021/03/27 07:25:21;;;;;;;46.93;28.70;;;;;;;10.21;55.67;100269.72;147472;1146;104521;-79
2021/03/27 07:28:52;;;;;;;47.38;28.67;;;;;;;10.34;55.61;100272.06;147559;1147;104429;-75
2021/03/27 07:32:17;;;;;;;46.58;27.87;;;;;;;10.46;55.30;100275.34;147587;1147;104803;-72
2021/03/27 07:35:46;;;;;;;49.87;29.93;;;;;;;10.56;55.11;100265.42;147765;1147;104460;-72
2021/03/27 07:39:02;;;;;;;47.45;28.75;;;;;;;10.67;55.04;100260.87;147497;1147;104528;-73
2021/03/27 07:42:41;;;;;;;47.65;29.10;;;;;;;10.78;55.55;100263.30;147618;1147;104567;-76
2021/03/27 07:46:23;;;;;;;47.77;28.33;;;;;;;10.90;55.21;100256.72;147802;1147;104476;-75
2021/03/27 07:50:07;;;;;;;50.98;28.42;;;;;;;11.00;54.51;100253.95;147780;1147;104493;-73
2021/03/27 07:53:53;;;;;;;47.27;28.15;;;;;;;11.11;54.10;100251.03;147793;1147;104473;-75
2021/03/27 07:57:15;;;;;;;45.63;28.30;;;;;;;11.23;54.53;100256.11;147597;1148;104468;-75
2021/03/27 08:00:39;;;;;;;44.10;27.20;;;;;;;11.32;53.91;100247.16;147663;1146;104512;-75
2021/03/27 08:04:27;;;;;;;45.20;26.95;;;;;;;11.44;54.30;100253.89;147740;1147;104447;-75
2021/03/27 08:07:53;;;;;;;44.67;27.27;;;;;;;11.55;54.00;100256.30;147731;1147;104466;-70
2021/03/27 08:11:13;;;;;;;44.15;27.67;;;;;;;11.66;54.06;100243.64;147753;1145;104497;-74
2021/03/27 08:14:46;;;;;;;41.55;26.05;;;;;;;11.74;53.29;100255.22;147611;1147;104460;-71
2021/03/27 08:18:09;;;;;;;46.20;27.42;;;;;;;11.84;53.77;100248.91;147521;1148;104548;-79
2021/03/27 08:21:20;;;;;;;43.70;26.67;;;;;;;11.93;53.32;100258.64;147753;1147;104544;-74
2021/03/27 08:24:39;;;;;;;47.13;28.12;;;;;;;12.01;53.43;100250.67;147363;1147;104469;-73
2021/03/27 08:28:05;;;;;;;46.90;28.80;;;;;;;12.09;53.63;100244.51;147466;1146;104553;-77
2021/03/27 08:31:47;;;;;;;47.13;27.77;;;;;;;12.21;53.35;100250.39;147783;1146;104511;-75
2021/03/27 08:35:31;;;;;;;48.17;28.23;;;;;;;12.32;52.66;100247.41;147092;1148;104719;-72
2021/03/27 08:38:57;;;;;;;44.18;26.73;;;;;;;12.45;53.64;100246.90;147297;1147;104459;-73
2021/03/27 08:42:23;;;;;;;45.28;27.15;;;;;;;12.54;52.72;100233.36;147430;1146;104543;-73
2021/03/27 08:45:50;;;;;;;46.98;28.65;;;;;;;12.64;52.96;100230.52;147512;1147;104480;-74
2021/03/27 08:49:30;;;;;;;43.92;27.00;;;;;;;12.78;52.87;100231.70;147320;1147;104473;-77
2021/03/27 08:53:09;;;;;;;41.60;25.92;;;;;;;12.92;52.55;100224.83;147738;1147;104704;-77
2021/03/27 08:56:58;;;;;;;40.80;25.43;;;;;;;13.05;52.38;100218.94;148874;1148;104449;-77
2021/03/27 09:00:32;;;;;;;42.33;25.88;;;;;;;13.14;52.37;100216.09;147803;1147;104393;-76
2021/03/27 09:04:14;;;;;;;39.58;24.18;;;;;;;13.26;52.12;100221.93;147499;1147;104452;-72
2021/03/27 09:07:25;;;;;;;40.35;24.70;;;;;;;13.39;51.60;100212.53;147761;1147;104513;-79
2021/03/27 09:11:01;;;;;;;37.67;24.63;;;;;;;13.50;51.18;100201.44;147707;1147;104499;-72
2021/03/27 09:14:28;;;;;;;41.50;24.27;;;;;;;13.63;51.07;100192.85;147821;1148;104567;-74
2021/03/27 09:17:46;;;;;;;36.40;23.55;;;;;;;13.77;51.50;100194.78;147766;1147;104532;-73
2021/03/27 09:21:10;;;;;;;35.55;21.97;;;;;;;13.90;51.23;100187.00;147700;1147;104609;-74
2021/03/27 09:24:29;;;;;;;34.10;21.70;;;;;;;14.05;50.75;100180.86;147431;1147;104544;-74
2021/03/27 09:27:56;;;;;;;32.30;20.80;;;;;;;14.19;49.69;100176.61;147300;1147;104470;-78
2021/03/27 09:31:19;;;;;;;31.35;19.60;;;;;;;14.31;50.48;100175.16;147422;1147;104507;-69
2021/03/27 09:34:37;;;;;;;33.60;21.30;;;;;;;14.46;48.29;100172.53;147581;1147;104902;-73
2021/03/27 09:37:56;;;;;;;34.00;19.82;;;;;;;14.59;50.11;100169.25;147771;1147;104522;-75
2021/03/27 09:41:20;;;;;;;32.00;20.12;;;;;;;14.69;49.06;100173.36;147529;1147;104546;-76
2021/03/27 09:44:40;;;;;;;31.07;19.43;;;;;;;14.81;49.16;100159.50;147357;1147;104550;-73
2021/03/27 09:48:06;;;;;;;32.17;18.77;;;;;;;14.90;48.31;100164.59;147759;1147;104469;-75
2021/03/27 09:51:20;;;;;;;27.80;17.17;;;;;;;15.04;46.97;100168.31;147807;1147;104536;-73
2021/03/27 09:54:28;;;;;;;27.30;17.20;;;;;;;15.15;47.24;100156.28;147700;1147;104544;-75
2021/03/27 09:57:40;;;;;;;28.32;16.73;;;;;;;15.22;47.77;100154.53;147799;1147;104528;-74
2021/03/27 10:01:04;;;;;;;30.25;18.05;;;;;;;15.32;47.18;100154.24;147821;1147;104649;-77
2021/03/27 10:04:39;;;;;;;29.30;17.35;;;;;;;15.40;47.13;100151.45;147806;1147;104463;-76
2021/03/27 10:07:56;;;;;;;29.63;17.23;;;;;;;15.51;45.64;100142.05;147359;1147;104469;-76
2021/03/27 10:11:04;;;;;;;26.33;16.57;;;;;;;15.59;46.73;100143.80;147221;1147;104444;-78
2021/03/27 10:14:18;;;;;;;27.87;16.97;;;;;;;15.69;46.22;100147.86;147766;1148;104528;-77
2021/03/27 10:17:31;;;;;;;26.73;17.02;;;;;;;15.79;45.69;100136.83;147822;1147;104879;-75
2021/03/27 10:20:43;;;;;;;28.03;17.17;;;;;;;15.84;45.69;100139.80;147776;1147;104582;-77
2021/03/27 10:23:59;;;;;;;29.00;17.50;;;;;;;15.90;45.78;100128.27;147788;1148;104538;-86
2021/03/27 10:27:10;;;;;;;27.58;16.75;;;;;;;15.98;45.48;100146.14;147601;1147;104528;-80
2021/03/27 10:30:26;;;;;;;26.55;17.20;;;;;;;16.05;45.50;100124.67;147760;1146;104543;-77
2021/03/27 10:33:41;;;;;;;28.40;17.85;;;;;;;16.09;44.92;100118.73;147878;1147;104636;-76
2021/03/27 10:36:51;;;;;;;26.17;16.90;;;;;;;16.12;45.03;100124.75;147464;1147;104450;-83
2021/03/27 10:40:21;;;;;;;26.70;16.93;;;;;;;16.17;43.45;100122.32;147583;1147;104447;-79
2021/03/27 10:43:37;;;;;;;27.10;16.60;;;;;;;16.19;45.42;100125.66;147756;1147;104455;-79
2021/03/27 10:46:44;;;;;;;26.33;15.85;;;;;;;16.29;45.50;100121.59;147775;1147;104556;-78
2021/03/27 10:49:57;;;;;;;25.48;15.80;;;;;;;16.39;45.38;100129.33;147595;1147;104572;-80
2021/03/27 10:53:20;;;;;;;27.45;16.62;;;;;;;16.47;45.21;100129.22;147606;1146;105004;-80
2021/03/27 10:56:39;;;;;;;27.10;15.50;;;;;;;16.52;44.71;100125.10;147513;1147;104624;-77
2021/03/27 10:59:59;;;;;;;25.48;15.78;;;;;;;16.55;44.17;100119.30;147822;1147;104547;-77
2021/03/27 11:03:42;;;;;;;26.87;15.45;;;;;;;16.59;43.87;100123.27;147762;1147;104540;-75
2021/03/27 11:07:19;;;;;;;25.72;14.98;;;;;;;16.65;44.26;100133.28;147754;1147;104607;-73
2021/03/27 11:10:45;;;;;;;26.90;16.13;;;;;;;16.69;44.25;100127.30;147801;1147;104547;-74
2021/03/27 11:14:09;;;;;;;23.62;15.03;;;;;;;16.76;44.13;100126.51;147648;1147;104547;-80
2021/03/27 11:17:39;;;;;;;26.17;16.43;;;;;;;16.80;41.87;100123.23;147705;1148;104466;-78
2021/03/27 11:20:57;;;;;;;26.70;16.60;;;;;;;16.86;43.46;100116.27;147405;1148;104495;-84
2021/03/27 11:24:30;;;;;;;26.75;16.73;;;;;;;16.91;43.22;100123.74;147900;1147;104601;-76
2021/03/27 11:27:52;;;;;;;25.60;16.20;;;;;;;16.98;43.05;100109.28;147681;1147;104489;-80
2021/03/27 11:31:18;;;;;;;29.15;16.35;;;;;;;17.07;43.66;100120.71;147706;1147;104942;-76
2021/03/27 11:34:30;;;;;;;24.93;15.87;;;;;;;17.16;44.16;100116.83;147839;1147;104451;-87
2021/03/27 11:38:13;;;;;;;25.88;17.05;;;;;;;17.25;42.47;100118.33;147845;1147;104470;-77
2021/03/27 11:41:24;;;;;;;27.87;17.30;;;;;;;17.34;42.85;100107.37;147743;1147;104859;-76
2021/03/27 11:44:47;;;;;;;32.20;18.87;;;;;;;17.38;42.46;100108.63;147856;1147;104537;-73
2021/03/27 11:48:01;;;;;;;28.83;18.07;;;;;;;17.38;42.22;100120.27;147779;1145;104438;-72
2021/03/27 11:51:14;;;;;;;28.25;17.87;;;;;;;17.42;41.17;100109.91;147688;1148;104463;-83
2021/03/27 11:54:47;;;;;;;28.05;17.30;;;;;;;17.44;43.24;100113.23;147571;1147;105298;-85
2021/03/27 11:57:54;;;;;;;26.17;16.52;;;;;;;17.53;41.83;100122.80;147966;1147;104592;-84
2021/03/27 12:01:03;;;;;;;29.57;17.98;;;;;;;17.62;42.34;100093.78;147663;1147;104588;-75
2021/03/27 12:04:27;;;;;;;29.40;17.85;;;;;;;17.75;41.72;100106.48;147806;1147;104460;-75
2021/03/27 12:07:40;;;;;;;27.62;16.77;;;;;;;17.85;42.56;100098.85;147407;1146;104535;-75
2021/03/27 12:10:56;;;;;;;27.53;16.53;;;;;;;17.96;42.42;100100.95;147296;1147;104518;-75
2021/03/27 12:14:05;;;;;;;28.95;17.32;;;;;;;18.04;41.82;100102.63;147501;1147;104610;-74
2021/03/27 12:17:20;;;;;;;27.22;16.93;;;;;;;18.10;42.60;100098.27;147756;1147;104510;-75
2021/03/27 12:20:43;;;;;;;26.10;16.00;;;;;;;18.22;41.43;100088.50;147302;1147;104493;-74
2021/03/27 12:23:53;;;;;;;24.85;15.88;;;;;;;18.38;40.90;100093.51;147162;1146;104527;-72
2021/03/27 12:27:05;;;;;;;27.42;16.37;;;;;;;18.47;41.26;100091.41;147621;1146;104542;-75
2021/03/27 12:30:23;;;;;;;24.85;14.95;;;;;;;18.54;42.19;100102.23;147840;1147;104614;-76
2021/03/27 12:33:41;;;;;;;28.23;16.48;;;;;;;18.60;41.70;100090.58;147804;1147;104528;-75
2021/03/27 12:37:01;;;;;;;23.75;13.78;;;;;;;18.71;42.34;100089.12;147765;1146;104477;-75
2021/03/27 12:40:18;;;;;;;23.60;13.27;;;;;;;18.76;40.63;100100.93;147821;1147;104439;-75
2021/03/27 12:43:25;;;;;;;21.80;13.10;;;;;;;18.79;40.53;100092.41;148109;1147;104884;-74
2021/03/27 12:46:53;;;;;;;21.52;13.22;;;;;;;18.82;41.00;100092.03;147628;1147;104629;-75
2021/03/27 12:50:11;;;;;;;24.25;13.68;;;;;;;18.86;40.98;100099.70;147650;1147;104483;-75
2021/03/27 12:53:34;;;;;;;21.47;12.70;;;;;;;18.90;40.80;100093.68;147652;1147;104466;-74
2021/03/27 12:57:18;;;;;;;24.57;13.70;;;;;;;18.89;41.48;100102.00;147727;1146;104862;-74
2021/03/27 13:00:53;;;;;;;23.18;12.45;;;;;;;18.86;40.79;100094.30;147532;1146;104463;-76
2021/03/27 13:04:32;;;;;;;17.45;10.88;;;;;;;18.74;40.44;100092.20;147787;1147;104576;-77
2021/03/27 13:07:44;;;;;;;13.53;8.70;;;;;;;18.63;39.97;100092.88;147512;1147;104516;-78
2021/03/27 13:10:57;;;;;;;14.33;8.35;;;;;;;18.50;40.83;100092.88;147579;1146;104538;-78
2021/03/27 13:14:35;;;;;;;13.03;8.20;;;;;;;18.42;39.88;100097.45;147347;1147;104441;-76
2021/03/27 13:17:58;;;;;;;12.10;7.85;;;;;;;18.36;40.15;100095.59;147605;1148;104467;-75
2021/03/27 13:21:25;;;;;;;12.40;8.10;;;;;;;18.33;39.49;100106.80;147522;1147;104604;-74
2021/03/27 13:25:00;;;;;;;15.60;9.18;;;;;;;18.25;39.27;100104.31;147689;1147;104578;-76
2021/03/27 13:28:14;;;;;;;13.60;8.60;;;;;;;18.18;39.68;100114.27;147473;1146;104467;-76
2021/03/27 13:31:21;;;;;;;16.67;9.73;;;;;;;18.09;40.12;100110.09;147767;1147;104506;-76
2021/03/27 13:34:33;;;;;;;13.72;8.70;;;;;;;18.01;40.97;100109.28;147791;1147;104559;-76
2021/03/27 13:37:42;;;;;;;14.07;9.10;;;;;;;17.93;40.14;100112.15;147766;1147;104534;-77
2021/03/27 13:40:52;;;;;;;14.18;8.48;;;;;;;17.85;40.28;100105.08;147807;1147;104473;-77
2021/03/27 13:44:04;;;;;;;16.00;9.38;;;;;;;17.80;40.46;100101.30;147799;1147;104469;-76
2021/03/27 13:47:18;;;;;;;16.65;9.43;;;;;;;17.74;40.20;100113.73;147727;1147;104457;-75
2021/03/27 13:50:37;;;;;;;15.38;9.38;;;;;;;17.69;40.00;100115.37;147768;1146;104449;-75
2021/03/27 13:53:46;;;;;;;19.20;9.77;;;;;;;17.62;39.97;100123.46;147789;1147;104508;-76
2021/03/27 13:56:58;;;;;;;16.27;9.70;;;;;;;17.46;39.79;100133.58;147825;1147;104468;-74
2021/03/27 14:00:16;;;;;;;13.85;9.15;;;;;;;17.29;40.50;100153.00;147638;1146;104543;-75
2021/03/27 14:03:36;;;;;;;11.83;8.33;;;;;;;17.05;40.71;100168.61;147841;1147;104543;-72
2021/03/27 14:06:46;;;;;;;14.95;9.23;;;;;;;16.79;41.61;100163.84;147848;1147;104547;-73
2021/03/27 14:09:58;;;;;;;13.27;9.07;;;;;;;16.57;41.95;100168.42;147547;1147;104533;-73
2021/03/27 14:13:11;;;;;;;16.90;9.68;;;;;;;16.39;42.40;100161.65;147845;1147;104459;-73
2021/03/27 14:16:29;;;;;;;15.65;9.78;;;;;;;16.20;42.55;100171.20;147788;1146;104547;-73
2021/03/27 14:19:57;;;;;;;16.35;10.10;;;;;;;15.99;43.45;100169.33;147786;1147;104496;-74
2021/03/27 14:23:29;;;;;;;14.90;10.58;;;;;;;15.80;44.12;100172.63;147793;1147;104464;-78
2021/03/27 14:26:57;;;;;;;17.20;10.65;;;;;;;15.60;44.16;100175.89;147861;1147;104541;-75
2021/03/27 14:30:18;;;;;;;17.85;11.60;;;;;;;15.52;43.84;100178.69;147859;1147;104465;-76
2021/03/27 14:33:37;;;;;;;16.57;11.80;;;;;;;15.42;43.97;100194.28;147711;1146;104512;-72
2021/03/27 14:36:46;;;;;;;78.12;49.15;;;;;;;15.28;44.61;100204.86;147938;1147;104450;-71
2021/03/27 14:40:11;;;;;;;38.20;26.62;;;;;;;15.16;45.26;100208.17;147700;1146;104575;-71
2021/03/27 14:43:33;;;;;;;32.10;22.07;;;;;;;15.07;45.21;100208.27;147633;1147;104538;-73
2021/03/27 14:46:55;;;;;;;21.10;13.50;;;;;;;15.01;45.69;100213.52;147907;1146;104471;-72
2021/03/27 14:50:06;;;;;;;18.32;11.73;;;;;;;14.90;46.29;100221.02;147507;1146;104658;-72
2021/03/27 14:53:18;;;;;;;64.92;43.38;;;;;;;14.84;46.26;100251.30;147569;1147;104869;-71
2021/03/27 14:56:29;;;;;;;19.53;14.03;;;;;;;14.77;47.26;100266.46;147779;1147;104467;-72